UAE9J OMDB-EGSS
Flight info
| Callsign | UAE9J |
|---|---|
| Flight time | N/A |
| Altitude | 38000 |
| Route | RIDAP DCT TUMAK L602 TASMI DCT SEPTU DCT VUSEB DCT ODALI UL852 ODMAX/N0478F360 UL852 NEGEM DCT ANASA DCT DONIV DCT BABIT DCT SOGMO DCT SASAL DCT RENKA DCT INBED DCT BOMBI DCT ADKUV DCT LENDO DCT SOGRI DCT HELEN L179 SASKI L608 SUMUM Y6 TOSVA |
| Aircraft | B77W/H-SDE1E2E3FGHIJ2J3J4J5M1RWXY/LB1D1 |
Departure
| Time | 2026-05-04 09:11 |
|---|---|
| Airport | Dubai International Airport (OMDB) |
Arrival
| Time | N/A |
|---|---|
| Airport | London Stansted Airport (EGSS) |
| Time | Latitude | Longitude | Altitude | Speed | Heading |
|---|---|---|---|---|---|
| 2026-05-04 09:04 | 25.24809 | 55.35859 | 25 ft | 0 kts | 121° |
| 2026-05-04 09:05 | 25.24805 | 55.35867 | 25 ft | 6 kts | 121° |
| 2026-05-04 09:05 | 25.24754 | 55.35959 | 27 ft | 18 kts | 121° |
| 2026-05-04 09:05 | 25.24688 | 55.36078 | 27 ft | 18 kts | 121° |
| 2026-05-04 09:05 | 25.24620 | 55.36195 | 27 ft | 18 kts | 126° |
| 2026-05-04 09:06 | 25.24520 | 55.36277 | 27 ft | 18 kts | 147° |
| 2026-05-04 09:07 | 25.24833 | 55.36888 | 29 ft | 23 kts | 299° |
| 2026-05-04 09:08 | 25.24879 | 55.36717 | 27 ft | 23 kts | 287° |
| 2026-05-04 09:08 | 25.24953 | 55.36558 | 27 ft | 23 kts | 302° |
| 2026-05-04 09:08 | 25.25038 | 55.36405 | 27 ft | 23 kts | 301° |
| 2026-05-04 09:08 | 25.25146 | 55.36351 | 27 ft | 18 kts | 25° |
| 2026-05-04 09:09 | 25.25169 | 55.36365 | 27 ft | 0 kts | 31° |
| 2026-05-04 09:09 | 25.25170 | 55.36365 | 27 ft | 1 kts | 31° |
| 2026-05-04 09:09 | 25.25190 | 55.36379 | 27 ft | 6 kts | 33° |
| 2026-05-04 09:09 | 25.25242 | 55.36419 | 27 ft | 12 kts | 40° |
| 2026-05-04 09:10 | 25.25245 | 55.36514 | 27 ft | 16 kts | 118° |
| 2026-05-04 09:10 | 25.25153 | 55.36681 | 27 ft | 49 kts | 121° |
| 2026-05-04 09:10 | 25.24838 | 55.37248 | 33 ft | 122 kts | 122° |
| 2026-05-04 09:10 | 25.24281 | 55.38255 | 53 ft | 183 kts | 121° |
| 2026-05-04 09:11 | 25.23546 | 55.39560 | 373 ft | 207 kts | 121° |
| 2026-05-04 09:11 | 25.22755 | 55.40930 | 918 ft | 215 kts | 128° |
| 2026-05-04 09:11 | 25.21770 | 55.42219 | 1511 ft | 220 kts | 135° |
| 2026-05-04 09:11 | 25.20532 | 55.43184 | 2142 ft | 220 kts | 162° |
| 2026-05-04 09:12 | 25.19007 | 55.43476 | 2504 ft | 228 kts | 189° |
| 2026-05-04 09:12 | 25.17467 | 55.43101 | 2992 ft | 236 kts | 208° |
| 2026-05-04 09:14 | 25.20785 | 55.34156 | 6969 ft | 264 kts | 287° |
| 2026-05-04 09:14 | 25.21287 | 55.32173 | 7612 ft | 270 kts | 288° |
| 2026-05-04 09:14 | 25.21824 | 55.30175 | 8388 ft | 274 kts | 289° |
| 2026-05-04 09:14 | 25.22396 | 55.28151 | 9168 ft | 278 kts | 289° |
| 2026-05-04 09:15 | 25.22999 | 55.26106 | 9879 ft | 283 kts | 290° |
| 2026-05-04 09:15 | 25.23634 | 55.24017 | 10443 ft | 293 kts | 290° |
| 2026-05-04 09:15 | 25.24322 | 55.21800 | 10629 ft | 318 kts | 290° |
| 2026-05-04 09:15 | 25.25076 | 55.19406 | 10811 ft | 341 kts | 290° |
| 2026-05-04 09:17 | 25.32128 | 54.97361 | 15694 ft | 397 kts | 290° |
| 2026-05-04 09:18 | 25.33040 | 54.94514 | 16352 ft | 400 kts | 290° |
| 2026-05-04 09:18 | 25.33983 | 54.91566 | 17015 ft | 404 kts | 290° |
| 2026-05-04 09:18 | 25.34910 | 54.88667 | 17664 ft | 407 kts | 290° |
| 2026-05-04 09:18 | 25.35856 | 54.85704 | 18296 ft | 410 kts | 290° |
| 2026-05-04 09:19 | 25.36810 | 54.82714 | 18858 ft | 414 kts | 290° |
| 2026-05-04 09:19 | 25.37783 | 54.79662 | 19423 ft | 418 kts | 290° |
| 2026-05-04 09:19 | 25.38739 | 54.76660 | 19988 ft | 421 kts | 289° |
| 2026-05-04 09:19 | 25.39716 | 54.73592 | 20553 ft | 425 kts | 289° |
| 2026-05-04 09:20 | 25.40687 | 54.70498 | 21098 ft | 428 kts | 288° |
| 2026-05-04 09:20 | 25.41599 | 54.67352 | 21646 ft | 432 kts | 287° |
| 2026-05-04 09:20 | 25.42501 | 54.64166 | 22202 ft | 435 kts | 287° |
| 2026-05-04 09:20 | 25.43416 | 54.60959 | 22741 ft | 439 kts | 287° |
| 2026-05-04 09:21 | 25.44349 | 54.57734 | 23251 ft | 442 kts | 287° |
| 2026-05-04 09:21 | 25.45297 | 54.54484 | 23727 ft | 445 kts | 287° |
| 2026-05-04 09:21 | 25.46252 | 54.51223 | 24221 ft | 446 kts | 287° |
| 2026-05-04 09:21 | 25.47208 | 54.47955 | 24740 ft | 446 kts | 287° |
| 2026-05-04 09:22 | 25.48162 | 54.44686 | 25240 ft | 447 kts | 287° |
| 2026-05-04 09:22 | 25.49119 | 54.41401 | 25707 ft | 449 kts | 287° |
| 2026-05-04 09:22 | 25.50078 | 54.38106 | 26161 ft | 451 kts | 287° |
| 2026-05-04 09:22 | 25.51038 | 54.34799 | 26610 ft | 452 kts | 287° |
| 2026-05-04 09:23 | 25.52001 | 54.31477 | 27044 ft | 454 kts | 287° |
| 2026-05-04 09:23 | 25.52967 | 54.28144 | 27487 ft | 455 kts | 287° |
| 2026-05-04 09:23 | 25.53934 | 54.24803 | 27906 ft | 457 kts | 287° |
| 2026-05-04 09:23 | 25.54905 | 54.21447 | 28305 ft | 458 kts | 287° |
| 2026-05-04 09:25 | 25.61451 | 53.98560 | 31198 ft | 452 kts | 286° |
| 2026-05-04 09:25 | 25.61661 | 53.97814 | 31267 ft | 453 kts | 286° |
| 2026-05-04 09:26 | 25.62215 | 53.95873 | 31466 ft | 453 kts | 286° |
| 2026-05-04 09:26 | 25.63177 | 53.92559 | 31858 ft | 451 kts | 286° |
| 2026-05-04 09:26 | 25.64141 | 53.89253 | 32276 ft | 449 kts | 286° |
| 2026-05-04 09:26 | 25.65097 | 53.85965 | 32688 ft | 448 kts | 286° |
| 2026-05-04 09:27 | 25.66047 | 53.82677 | 33055 ft | 447 kts | 286° |
| 2026-05-04 09:27 | 25.66988 | 53.79399 | 33429 ft | 446 kts | 286° |
| 2026-05-04 09:27 | 25.67923 | 53.76129 | 33785 ft | 445 kts | 286° |
| 2026-05-04 09:27 | 25.68859 | 53.72845 | 33762 ft | 448 kts | 286° |
| 2026-05-04 09:28 | 25.70725 | 53.66290 | 33778 ft | 444 kts | 286° |
| 2026-05-04 09:28 | 25.72580 | 53.59764 | 33784 ft | 443 kts | 285° |
| 2026-05-04 09:29 | 25.74429 | 53.53245 | 33784 ft | 443 kts | 285° |
| 2026-05-04 09:29 | 25.76275 | 53.46728 | 33785 ft | 443 kts | 285° |
| 2026-05-04 09:30 | 25.78117 | 53.40211 | 33783 ft | 443 kts | 285° |
| 2026-05-04 09:30 | 25.79959 | 53.33684 | 33787 ft | 443 kts | 285° |
| 2026-05-04 09:31 | 25.81784 | 53.27202 | 33787 ft | 444 kts | 285° |
| 2026-05-04 09:31 | 25.83623 | 53.20662 | 33792 ft | 444 kts | 285° |
| 2026-05-04 09:32 | 25.85898 | 53.14288 | 33789 ft | 446 kts | 292° |
| 2026-05-04 09:34 | 25.96131 | 52.89200 | 33794 ft | 445 kts | 291° |
| 2026-05-04 09:34 | 25.98667 | 52.82919 | 33794 ft | 445 kts | 291° |
| 2026-05-04 09:35 | 26.01199 | 52.76645 | 33795 ft | 445 kts | 291° |
| 2026-05-04 09:35 | 26.03834 | 52.70424 | 33789 ft | 445 kts | 294° |
| 2026-05-04 09:37 | 26.14988 | 52.45881 | 33802 ft | 444 kts | 294° |
| 2026-05-04 09:38 | 26.17773 | 52.39738 | 33800 ft | 444 kts | 294° |
| 2026-05-04 09:38 | 26.20552 | 52.33589 | 33801 ft | 444 kts | 294° |
| 2026-05-04 09:39 | 26.23302 | 52.27435 | 33803 ft | 444 kts | 292° |
| 2026-05-04 09:39 | 26.25977 | 52.21229 | 33799 ft | 444 kts | 292° |
| 2026-05-04 09:40 | 26.28646 | 52.15034 | 33805 ft | 444 kts | 292° |
| 2026-05-04 09:40 | 26.31307 | 52.08877 | 33802 ft | 444 kts | 292° |
| 2026-05-04 09:42 | 26.41078 | 51.83667 | 33807 ft | 441 kts | 288° |
| 2026-05-04 09:43 | 26.43227 | 51.77301 | 33806 ft | 442 kts | 288° |
| 2026-05-04 09:43 | 26.45397 | 51.70889 | 33810 ft | 442 kts | 288° |
| 2026-05-04 09:44 | 26.47571 | 51.64471 | 33817 ft | 442 kts | 288° |
| 2026-05-04 09:46 | 26.55761 | 51.39812 | 33823 ft | 442 kts | 287° |
| 2026-05-04 09:46 | 26.57890 | 51.33372 | 33818 ft | 442 kts | 287° |
| 2026-05-04 09:47 | 26.60018 | 51.26925 | 33824 ft | 442 kts | 287° |
| 2026-05-04 09:49 | 26.68522 | 51.01139 | 33823 ft | 442 kts | 287° |
| 2026-05-04 09:51 | 26.75774 | 50.78538 | 33829 ft | 440 kts | 286° |
| 2026-05-04 09:51 | 26.77836 | 50.72087 | 33828 ft | 440 kts | 286° |
| 2026-05-04 09:52 | 26.80370 | 50.65830 | 33831 ft | 445 kts | 295° |
| 2026-05-04 09:52 | 26.83776 | 50.60003 | 33827 ft | 451 kts | 303° |
| 2026-05-04 09:53 | 26.87782 | 50.54587 | 33832 ft | 452 kts | 304° |
| 2026-05-04 09:53 | 26.91777 | 50.49164 | 33830 ft | 452 kts | 304° |
| 2026-05-04 09:54 | 26.96060 | 50.43967 | 33834 ft | 454 kts | 307° |
| 2026-05-04 09:54 | 27.00421 | 50.38840 | 33831 ft | 454 kts | 307° |
| 2026-05-04 09:55 | 27.04755 | 50.33681 | 33835 ft | 454 kts | 307° |
| 2026-05-04 09:55 | 27.09058 | 50.28502 | 33837 ft | 453 kts | 307° |
| 2026-05-04 09:56 | 27.13350 | 50.23322 | 33826 ft | 453 kts | 307° |
| 2026-05-04 09:56 | 27.17931 | 50.18402 | 33825 ft | 461 kts | 315° |